sensor_id;sensor_type;location;lat;lon;timestamp;P1;durP1;ratioP1;P2;durP2;ratioP2
33170;SDS011;19535;50.672;4.206;2023-12-22T00:02:19;3.38;;;1.77;;
33170;SDS011;19535;50.672;4.206;2023-12-22T00:04:46;3.90;;;2.15;;
33170;SDS011;19535;50.672;4.206;2023-12-22T00:07:13;5.15;;;1.77;;
33170;SDS011;19535;50.672;4.206;2023-12-22T00:09:40;2.33;;;1.33;;
33170;SDS011;19535;50.672;4.206;2023-12-22T00:12:07;2.80;;;1.35;;
33170;SDS011;19535;50.672;4.206;2023-12-22T00:14:34;2.78;;;1.67;;
33170;SDS011;19535;50.672;4.206;2023-12-22T00:17:01;5.38;;;1.90;;
33170;SDS011;19535;50.672;4.206;2023-12-22T00:19:28;4.22;;;1.75;;
33170;SDS011;19535;50.672;4.206;2023-12-22T00:21:54;3.63;;;1.90;;
33170;SDS011;19535;50.672;4.206;2023-12-22T00:24:21;4.95;;;1.85;;
33170;SDS011;19535;50.672;4.206;2023-12-22T00:26:48;2.40;;;1.48;;
33170;SDS011;19535;50.672;4.206;2023-12-22T00:29:15;4.03;;;1.80;;
33170;SDS011;19535;50.672;4.206;2023-12-22T00:31:45;3.40;;;1.50;;
33170;SDS011;19535;50.672;4.206;2023-12-22T00:34:12;4.18;;;1.63;;
33170;SDS011;19535;50.672;4.206;2023-12-22T00:36:39;3.25;;;1.70;;
33170;SDS011;19535;50.672;4.206;2023-12-22T00:39:06;2.20;;;1.48;;
33170;SDS011;19535;50.672;4.206;2023-12-22T00:41:33;2.30;;;1.38;;
33170;SDS011;19535;50.672;4.206;2023-12-22T00:44:00;4.28;;;1.70;;
33170;SDS011;19535;50.672;4.206;2023-12-22T00:46:27;2.80;;;1.50;;
33170;SDS011;19535;50.672;4.206;2023-12-22T00:48:54;2.70;;;1.50;;
33170;SDS011;19535;50.672;4.206;2023-12-22T00:51:21;2.95;;;1.58;;
33170;SDS011;19535;50.672;4.206;2023-12-22T00:53:48;2.45;;;1.38;;
33170;SDS011;19535;50.672;4.206;2023-12-22T00:56:15;2.80;;;1.52;;
33170;SDS011;19535;50.672;4.206;2023-12-22T00:58:42;2.63;;;1.30;;
33170;SDS011;19535;50.672;4.206;2023-12-22T01:01:15;3.47;;;1.60;;
33170;SDS011;19535;50.672;4.206;2023-12-22T01:03:41;2.40;;;1.60;;
33170;SDS011;19535;50.672;4.206;2023-12-22T01:06:08;3.70;;;1.55;;
33170;SDS011;19535;50.672;4.206;2023-12-22T01:08:39;3.33;;;1.70;;
33170;SDS011;19535;50.672;4.206;2023-12-22T01:11:05;3.08;;;1.40;;
33170;SDS011;19535;50.672;4.206;2023-12-22T01:13:32;2.70;;;1.60;;
33170;SDS011;19535;50.672;4.206;2023-12-22T01:15:59;2.88;;;1.42;;
33170;SDS011;19535;50.672;4.206;2023-12-22T01:18:26;3.72;;;1.55;;
33170;SDS011;19535;50.672;4.206;2023-12-22T01:20:56;2.65;;;1.33;;
33170;SDS011;19535;50.672;4.206;2023-12-22T01:23:23;2.47;;;1.23;;
33170;SDS011;19535;50.672;4.206;2023-12-22T01:25:51;2.38;;;1.33;;
33170;SDS011;19535;50.672;4.206;2023-12-22T01:28:18;2.40;;;1.50;;
33170;SDS011;19535;50.672;4.206;2023-12-22T01:30:45;3.38;;;1.50;;
33170;SDS011;19535;50.672;4.206;2023-12-22T01:33:12;2.50;;;1.50;;
33170;SDS011;19535;50.672;4.206;2023-12-22T01:35:39;3.58;;;1.35;;
33170;SDS011;19535;50.672;4.206;2023-12-22T01:38:06;2.45;;;1.38;;
33170;SDS011;19535;50.672;4.206;2023-12-22T01:40:33;1.77;;;1.35;;
33170;SDS011;19535;50.672;4.206;2023-12-22T01:43:00;3.88;;;1.65;;
33170;SDS011;19535;50.672;4.206;2023-12-22T01:45:28;3.42;;;1.52;;
33170;SDS011;19535;50.672;4.206;2023-12-22T01:47:55;3.50;;;1.88;;
33170;SDS011;19535;50.672;4.206;2023-12-22T01:50:22;2.33;;;1.35;;
33170;SDS011;19535;50.672;4.206;2023-12-22T01:52:49;2.20;;;1.40;;
33170;SDS011;19535;50.672;4.206;2023-12-22T01:55:16;2.60;;;1.80;;
33170;SDS011;19535;50.672;4.206;2023-12-22T01:57:43;4.10;;;1.70;;
33170;SDS011;19535;50.672;4.206;2023-12-22T02:00:11;1.88;;;1.20;;
33170;SDS011;19535;50.672;4.206;2023-12-22T02:05:42;2.83;;;1.40;;
33170;SDS011;19535;50.672;4.206;2023-12-22T02:08:10;2.80;;;1.50;;
33170;SDS011;19535;50.672;4.206;2023-12-22T02:10:38;2.92;;;1.50;;
33170;SDS011;19535;50.672;4.206;2023-12-22T02:13:05;3.13;;;1.52;;
33170;SDS011;19535;50.672;4.206;2023-12-22T02:15:32;2.55;;;1.40;;
33170;SDS011;19535;50.672;4.206;2023-12-22T02:18:02;3.50;;;1.75;;
33170;SDS011;19535;50.672;4.206;2023-12-22T02:20:33;2.10;;;1.20;;
33170;SDS011;19535;50.672;4.206;2023-12-22T02:23:01;3.13;;;1.40;;
33170;SDS011;19535;50.672;4.206;2023-12-22T02:25:28;2.00;;;1.25;;
33170;SDS011;19535;50.672;4.206;2023-12-22T02:28:00;3.30;;;1.23;;
33170;SDS011;19535;50.672;4.206;2023-12-22T02:33:12;2.38;;;1.20;;
33170;SDS011;19535;50.672;4.206;2023-12-22T02:35:42;2.30;;;1.40;;
33170;SDS011;19535;50.672;4.206;2023-12-22T02:38:09;3.92;;;1.80;;
33170;SDS011;19535;50.672;4.206;2023-12-22T02:40:37;4.10;;;1.88;;
33170;SDS011;19535;50.672;4.206;2023-12-22T02:43:05;2.80;;;1.77;;
33170;SDS011;19535;50.672;4.206;2023-12-22T02:45:32;2.90;;;1.50;;
33170;SDS011;19535;50.672;4.206;2023-12-22T02:48:00;3.40;;;1.63;;
33170;SDS011;19535;50.672;4.206;2023-12-22T02:50:27;3.58;;;1.75;;
33170;SDS011;19535;50.672;4.206;2023-12-22T02:52:54;3.00;;;1.60;;
33170;SDS011;19535;50.672;4.206;2023-12-22T02:55:21;3.08;;;1.70;;
33170;SDS011;19535;50.672;4.206;2023-12-22T02:57:48;3.00;;;1.60;;
33170;SDS011;19535;50.672;4.206;2023-12-22T03:00:15;3.97;;;1.60;;
33170;SDS011;19535;50.672;4.206;2023-12-22T03:02:42;2.88;;;1.40;;
33170;SDS011;19535;50.672;4.206;2023-12-22T03:05:09;2.97;;;1.60;;
33170;SDS011;19535;50.672;4.206;2023-12-22T03:07:36;2.67;;;1.52;;
33170;SDS011;19535;50.672;4.206;2023-12-22T03:10:03;2.17;;;1.30;;
33170;SDS011;19535;50.672;4.206;2023-12-22T03:12:30;2.90;;;1.60;;
33170;SDS011;19535;50.672;4.206;2023-12-22T03:14:57;2.92;;;1.67;;
33170;SDS011;19535;50.672;4.206;2023-12-22T03:17:23;3.72;;;1.73;;
33170;SDS011;19535;50.672;4.206;2023-12-22T03:19:50;3.22;;;1.50;;
33170;SDS011;19535;50.672;4.206;2023-12-22T03:22:17;2.53;;;1.45;;
33170;SDS011;19535;50.672;4.206;2023-12-22T03:24:44;2.55;;;1.42;;
33170;SDS011;19535;50.672;4.206;2023-12-22T03:27:11;2.15;;;1.13;;
33170;SDS011;19535;50.672;4.206;2023-12-22T03:29:43;2.55;;;1.10;;
33170;SDS011;19535;50.672;4.206;2023-12-22T03:32:10;2.30;;;1.30;;
33170;SDS011;19535;50.672;4.206;2023-12-22T03:34:37;1.83;;;1.10;;
33170;SDS011;19535;50.672;4.206;2023-12-22T03:37:03;3.85;;;1.75;;
33170;SDS011;19535;50.672;4.206;2023-12-22T03:39:30;3.00;;;1.40;;
33170;SDS011;19535;50.672;4.206;2023-12-22T03:41:57;3.40;;;1.17;;
33170;SDS011;19535;50.672;4.206;2023-12-22T03:44:25;3.55;;;1.73;;
33170;SDS011;19535;50.672;4.206;2023-12-22T03:46:52;3.15;;;1.48;;
33170;SDS011;19535;50.672;4.206;2023-12-22T03:49:19;2.42;;;1.30;;
33170;SDS011;19535;50.672;4.206;2023-12-22T03:51:46;2.17;;;1.17;;
33170;SDS011;19535;50.672;4.206;2023-12-22T03:54:13;2.03;;;1.27;;
33170;SDS011;19535;50.672;4.206;2023-12-22T03:56:42;3.57;;;1.33;;
33170;SDS011;19535;50.672;4.206;2023-12-22T03:59:09;3.20;;;1.40;;
33170;SDS011;19535;50.672;4.206;2023-12-22T04:01:36;2.78;;;1.50;;
33170;SDS011;19535;50.672;4.206;2023-12-22T04:04:03;1.33;;;0.98;;
33170;SDS011;19535;50.672;4.206;2023-12-22T04:06:30;2.28;;;1.40;;
33170;SDS011;19535;50.672;4.206;2023-12-22T04:08:56;2.85;;;1.52;;
33170;SDS011;19535;50.672;4.206;2023-12-22T04:11:23;2.65;;;1.10;;
33170;SDS011;19535;50.672;4.206;2023-12-22T04:13:50;1.85;;;1.20;;
33170;SDS011;19535;50.672;4.206;2023-12-22T04:16:17;2.42;;;1.30;;
33170;SDS011;19535;50.672;4.206;2023-12-22T04:18:44;2.50;;;1.10;;
33170;SDS011;19535;50.672;4.206;2023-12-22T04:21:11;2.20;;;1.10;;
33170;SDS011;19535;50.672;4.206;2023-12-22T04:23:38;2.30;;;1.35;;
33170;SDS011;19535;50.672;4.206;2023-12-22T04:26:05;3.47;;;1.50;;
33170;SDS011;19535;50.672;4.206;2023-12-22T04:28:31;2.35;;;1.20;;
33170;SDS011;19535;50.672;4.206;2023-12-22T04:30:59;3.15;;;1.65;;
33170;SDS011;19535;50.672;4.206;2023-12-22T04:33:25;2.33;;;1.30;;
33170;SDS011;19535;50.672;4.206;2023-12-22T04:35:52;2.78;;;1.60;;
33170;SDS011;19535;50.672;4.206;2023-12-22T04:38:19;2.63;;;1.08;;
33170;SDS011;19535;50.672;4.206;2023-12-22T04:40:46;2.45;;;1.20;;
33170;SDS011;19535;50.672;4.206;2023-12-22T04:43:13;2.17;;;1.05;;
33170;SDS011;19535;50.672;4.206;2023-12-22T04:45:40;3.17;;;1.45;;
33170;SDS011;19535;50.672;4.206;2023-12-22T04:48:07;4.65;;;1.75;;
33170;SDS011;19535;50.672;4.206;2023-12-22T04:50:34;2.55;;;1.30;;
33170;SDS011;19535;50.672;4.206;2023-12-22T04:53:00;2.60;;;1.50;;
33170;SDS011;19535;50.672;4.206;2023-12-22T04:55:27;2.17;;;1.25;;
33170;SDS011;19535;50.672;4.206;2023-12-22T04:57:54;4.10;;;1.90;;
33170;SDS011;19535;50.672;4.206;2023-12-22T05:00:21;2.22;;;1.35;;
33170;SDS011;19535;50.672;4.206;2023-12-22T05:02:48;2.67;;;1.55;;
33170;SDS011;19535;50.672;4.206;2023-12-22T05:05:15;2.72;;;1.70;;
33170;SDS011;19535;50.672;4.206;2023-12-22T05:07:42;3.28;;;1.70;;
33170;SDS011;19535;50.672;4.206;2023-12-22T05:10:09;4.05;;;1.52;;
33170;SDS011;19535;50.672;4.206;2023-12-22T05:12:36;2.42;;;1.75;;
33170;SDS011;19535;50.672;4.206;2023-12-22T05:15:03;3.03;;;1.52;;
33170;SDS011;19535;50.672;4.206;2023-12-22T05:17:30;4.18;;;1.73;;
33170;SDS011;19535;50.672;4.206;2023-12-22T05:19:59;2.90;;;1.52;;
33170;SDS011;19535;50.672;4.206;2023-12-22T05:22:25;5.05;;;1.90;;
33170;SDS011;19535;50.672;4.206;2023-12-22T05:24:52;3.45;;;1.58;;
33170;SDS011;19535;50.672;4.206;2023-12-22T05:27:19;4.50;;;1.45;;
33170;SDS011;19535;50.672;4.206;2023-12-22T05:29:46;3.53;;;1.65;;
33170;SDS011;19535;50.672;4.206;2023-12-22T05:32:13;4.65;;;1.80;;
33170;SDS011;19535;50.672;4.206;2023-12-22T05:34:40;3.92;;;1.60;;
33170;SDS011;19535;50.672;4.206;2023-12-22T05:37:07;3.78;;;1.58;;
33170;SDS011;19535;50.672;4.206;2023-12-22T05:39:34;3.10;;;1.60;;
33170;SDS011;19535;50.672;4.206;2023-12-22T05:42:01;3.72;;;1.60;;
33170;SDS011;19535;50.672;4.206;2023-12-22T05:44:28;2.80;;;1.45;;
33170;SDS011;19535;50.672;4.206;2023-12-22T05:47:16;3.87;;;2.13;;
33170;SDS011;19535;50.672;4.206;2023-12-22T05:49:44;3.30;;;1.80;;
33170;SDS011;19535;50.672;4.206;2023-12-22T05:52:12;3.60;;;1.58;;
33170;SDS011;19535;50.672;4.206;2023-12-22T05:54:39;3.05;;;2.05;;
33170;SDS011;19535;50.672;4.206;2023-12-22T05:57:06;3.72;;;1.67;;
33170;SDS011;19535;50.672;4.206;2023-12-22T05:59:33;3.30;;;1.67;;
33170;SDS011;19535;50.672;4.206;2023-12-22T06:02:01;3.20;;;1.88;;
33170;SDS011;19535;50.672;4.206;2023-12-22T06:04:29;3.20;;;1.60;;
33170;SDS011;19535;50.672;4.206;2023-12-22T06:06:56;4.88;;;2.00;;
33170;SDS011;19535;50.672;4.206;2023-12-22T06:09:23;2.33;;;1.45;;
33170;SDS011;19535;50.672;4.206;2023-12-22T06:11:50;3.30;;;1.70;;
33170;SDS011;19535;50.672;4.206;2023-12-22T06:14:17;2.72;;;1.65;;
33170;SDS011;19535;50.672;4.206;2023-12-22T06:16:44;3.85;;;2.22;;
33170;SDS011;19535;50.672;4.206;2023-12-22T06:19:11;2.78;;;1.60;;
33170;SDS011;19535;50.672;4.206;2023-12-22T06:21:39;3.90;;;1.80;;
33170;SDS011;19535;50.672;4.206;2023-12-22T06:24:07;3.35;;;1.80;;
33170;SDS011;19535;50.672;4.206;2023-12-22T06:26:35;3.00;;;1.65;;
33170;SDS011;19535;50.672;4.206;2023-12-22T06:29:02;3.88;;;1.65;;
33170;SDS011;19535;50.672;4.206;2023-12-22T06:31:30;2.20;;;1.38;;
33170;SDS011;19535;50.672;4.206;2023-12-22T06:33:58;2.60;;;1.63;;
33170;SDS011;19535;50.672;4.206;2023-12-22T06:36:29;2.83;;;1.50;;
33170;SDS011;19535;50.672;4.206;2023-12-22T06:38:56;3.40;;;1.60;;
33170;SDS011;19535;50.672;4.206;2023-12-22T06:43:54;5.47;;;1.80;;
33170;SDS011;19535;50.672;4.206;2023-12-22T06:46:22;3.30;;;1.33;;
33170;SDS011;19535;50.672;4.206;2023-12-22T06:48:53;1.85;;;1.23;;
33170;SDS011;19535;50.672;4.206;2023-12-22T06:53:48;2.33;;;1.30;;
33170;SDS011;19535;50.672;4.206;2023-12-22T06:58:43;4.22;;;1.42;;
33170;SDS011;19535;50.672;4.206;2023-12-22T07:01:17;2.80;;;1.50;;
33170;SDS011;19535;50.672;4.206;2023-12-22T07:03:48;3.33;;;1.85;;
33170;SDS011;19535;50.672;4.206;2023-12-22T07:06:16;3.70;;;1.70;;
33170;SDS011;19535;50.672;4.206;2023-12-22T07:08:43;4.50;;;1.75;;
33170;SDS011;19535;50.672;4.206;2023-12-22T07:11:10;2.40;;;1.50;;
33170;SDS011;19535;50.672;4.206;2023-12-22T07:13:37;2.92;;;1.50;;
33170;SDS011;19535;50.672;4.206;2023-12-22T07:16:05;1.88;;;1.33;;
33170;SDS011;19535;50.672;4.206;2023-12-22T07:18:32;2.67;;;1.42;;
33170;SDS011;19535;50.672;4.206;2023-12-22T07:21:00;2.47;;;1.48;;
33170;SDS011;19535;50.672;4.206;2023-12-22T07:23:27;2.78;;;1.38;;
33170;SDS011;19535;50.672;4.206;2023-12-22T07:25:53;2.85;;;1.60;;
33170;SDS011;19535;50.672;4.206;2023-12-22T07:28:21;2.97;;;1.75;;
33170;SDS011;19535;50.672;4.206;2023-12-22T07:30:48;3.05;;;1.52;;
33170;SDS011;19535;50.672;4.206;2023-12-22T07:33:15;2.72;;;1.60;;
33170;SDS011;19535;50.672;4.206;2023-12-22T07:35:42;3.17;;;1.50;;
33170;SDS011;19535;50.672;4.206;2023-12-22T07:38:11;2.58;;;1.55;;
33170;SDS011;19535;50.672;4.206;2023-12-22T07:40:38;1.65;;;1.13;;
33170;SDS011;19535;50.672;4.206;2023-12-22T07:43:05;2.70;;;1.60;;
33170;SDS011;19535;50.672;4.206;2023-12-22T07:45:32;2.05;;;1.13;;
33170;SDS011;19535;50.672;4.206;2023-12-22T07:47:59;2.50;;;1.40;;
33170;SDS011;19535;50.672;4.206;2023-12-22T07:50:26;3.13;;;1.40;;
33170;SDS011;19535;50.672;4.206;2023-12-22T07:52:54;2.05;;;1.40;;
33170;SDS011;19535;50.672;4.206;2023-12-22T07:55:21;2.25;;;1.27;;
33170;SDS011;19535;50.672;4.206;2023-12-22T07:57:48;2.30;;;1.40;;
33170;SDS011;19535;50.672;4.206;2023-12-22T08:00:15;1.73;;;1.13;;
33170;SDS011;19535;50.672;4.206;2023-12-22T08:02:43;1.98;;;1.10;;
33170;SDS011;19535;50.672;4.206;2023-12-22T08:05:10;3.00;;;1.42;;
33170;SDS011;19535;50.672;4.206;2023-12-22T08:07:39;3.25;;;1.17;;
33170;SDS011;19535;50.672;4.206;2023-12-22T08:10:06;1.88;;;1.25;;
33170;SDS011;19535;50.672;4.206;2023-12-22T08:12:34;1.67;;;1.17;;
33170;SDS011;19535;50.672;4.206;2023-12-22T08:15:02;2.17;;;1.50;;
33170;SDS011;19535;50.672;4.206;2023-12-22T08:17:29;2.20;;;1.35;;
33170;SDS011;19535;50.672;4.206;2023-12-22T08:19:56;3.58;;;1.33;;
33170;SDS011;19535;50.672;4.206;2023-12-22T08:22:35;2.35;;;1.52;;
33170;SDS011;19535;50.672;4.206;2023-12-22T08:25:03;2.38;;;1.23;;
33170;SDS011;19535;50.672;4.206;2023-12-22T08:27:30;2.00;;;1.08;;
33170;SDS011;19535;50.672;4.206;2023-12-22T08:29:58;1.90;;;1.08;;
33170;SDS011;19535;50.672;4.206;2023-12-22T08:32:25;1.90;;;1.02;;
33170;SDS011;19535;50.672;4.206;2023-12-22T08:34:52;2.35;;;1.58;;
33170;SDS011;19535;50.672;4.206;2023-12-22T08:37:19;2.28;;;1.08;;
33170;SDS011;19535;50.672;4.206;2023-12-22T08:39:47;2.33;;;1.13;;
33170;SDS011;19535;50.672;4.206;2023-12-22T08:42:14;1.38;;;0.82;;
33170;SDS011;19535;50.672;4.206;2023-12-22T08:44:40;1.67;;;1.02;;
33170;SDS011;19535;50.672;4.206;2023-12-22T08:47:08;2.35;;;1.23;;
33170;SDS011;19535;50.672;4.206;2023-12-22T08:49:35;0.95;;;0.77;;
33170;SDS011;19535;50.672;4.206;2023-12-22T08:52:02;2.05;;;1.27;;
33170;SDS011;19535;50.672;4.206;2023-12-22T08:54:30;1.55;;;0.85;;
33170;SDS011;19535;50.672;4.206;2023-12-22T08:56:57;1.70;;;0.88;;
33170;SDS011;19535;50.672;4.206;2023-12-22T08:59:24;1.33;;;0.95;;
33170;SDS011;19535;50.672;4.206;2023-12-22T09:01:52;1.77;;;0.98;;
33170;SDS011;19535;50.672;4.206;2023-12-22T09:04:19;1.25;;;0.95;;
33170;SDS011;19535;50.672;4.206;2023-12-22T09:06:50;2.05;;;1.25;;
33170;SDS011;19535;50.672;4.206;2023-12-22T09:09:17;1.27;;;0.93;;
33170;SDS011;19535;50.672;4.206;2023-12-22T09:11:44;2.47;;;1.58;;
33170;SDS011;19535;50.672;4.206;2023-12-22T09:14:11;1.08;;;0.90;;
33170;SDS011;19535;50.672;4.206;2023-12-22T09:16:38;1.58;;;0.93;;
33170;SDS011;19535;50.672;4.206;2023-12-22T09:19:06;1.38;;;0.90;;
33170;SDS011;19535;50.672;4.206;2023-12-22T09:21:33;1.73;;;1.00;;
33170;SDS011;19535;50.672;4.206;2023-12-22T09:24:00;1.80;;;0.95;;
33170;SDS011;19535;50.672;4.206;2023-12-22T09:26:27;1.83;;;1.20;;
33170;SDS011;19535;50.672;4.206;2023-12-22T09:28:55;1.52;;;1.00;;
33170;SDS011;19535;50.672;4.206;2023-12-22T09:31:22;1.73;;;1.00;;
33170;SDS011;19535;50.672;4.206;2023-12-22T09:33:49;1.05;;;0.80;;
33170;SDS011;19535;50.672;4.206;2023-12-22T09:36:16;1.55;;;0.75;;
33170;SDS011;19535;50.672;4.206;2023-12-22T09:38:43;1.60;;;0.90;;
33170;SDS011;19535;50.672;4.206;2023-12-22T09:41:10;0.95;;;0.80;;
33170;SDS011;19535;50.672;4.206;2023-12-22T09:43:37;1.17;;;0.90;;
33170;SDS011;19535;50.672;4.206;2023-12-22T09:46:06;1.20;;;0.80;;
33170;SDS011;19535;50.672;4.206;2023-12-22T09:48:33;1.90;;;1.20;;
33170;SDS011;19535;50.672;4.206;2023-12-22T09:51:02;1.27;;;0.85;;
33170;SDS011;19535;50.672;4.206;2023-12-22T09:53:29;1.15;;;0.80;;
33170;SDS011;19535;50.672;4.206;2023-12-22T09:55:57;1.23;;;0.85;;
33170;SDS011;19535;50.672;4.206;2023-12-22T09:58:25;1.23;;;0.90;;
33170;SDS011;19535;50.672;4.206;2023-12-22T10:00:52;1.30;;;0.80;;
33170;SDS011;19535;50.672;4.206;2023-12-22T10:03:20;0.80;;;0.70;;
33170;SDS011;19535;50.672;4.206;2023-12-22T10:05:48;1.10;;;0.73;;
33170;SDS011;19535;50.672;4.206;2023-12-22T10:08:15;1.35;;;0.88;;
33170;SDS011;19535;50.672;4.206;2023-12-22T10:10:43;1.85;;;0.70;;
33170;SDS011;19535;50.672;4.206;2023-12-22T10:13:11;0.80;;;0.80;;
33170;SDS011;19535;50.672;4.206;2023-12-22T10:15:39;0.93;;;0.80;;
33170;SDS011;19535;50.672;4.206;2023-12-22T10:18:09;1.30;;;0.70;;
33170;SDS011;19535;50.672;4.206;2023-12-22T10:20:36;1.52;;;0.68;;
33170;SDS011;19535;50.672;4.206;2023-12-22T10:23:03;0.90;;;0.70;;
33170;SDS011;19535;50.672;4.206;2023-12-22T10:25:30;0.82;;;0.73;;
33170;SDS011;19535;50.672;4.206;2023-12-22T10:27:58;1.13;;;0.77;;
33170;SDS011;19535;50.672;4.206;2023-12-22T10:30:26;1.60;;;0.70;;
33170;SDS011;19535;50.672;4.206;2023-12-22T10:32:54;1.13;;;0.80;;
33170;SDS011;19535;50.672;4.206;2023-12-22T10:35:22;1.15;;;0.70;;
33170;SDS011;19535;50.672;4.206;2023-12-22T10:37:49;0.50;;;0.50;;
33170;SDS011;19535;50.672;4.206;2023-12-22T10:40:20;0.75;;;0.75;;
33170;SDS011;19535;50.672;4.206;2023-12-22T10:42:48;1.55;;;0.75;;
33170;SDS011;19535;50.672;4.206;2023-12-22T10:45:15;0.95;;;0.70;;
33170;SDS011;19535;50.672;4.206;2023-12-22T10:47:43;2.45;;;0.68;;
33170;SDS011;19535;50.672;4.206;2023-12-22T10:50:11;1.13;;;0.70;;
33170;SDS011;19535;50.672;4.206;2023-12-22T10:52:40;1.77;;;0.90;;
33170;SDS011;19535;50.672;4.206;2023-12-22T10:55:07;1.48;;;0.80;;
33170;SDS011;19535;50.672;4.206;2023-12-22T10:57:35;0.68;;;0.63;;
33170;SDS011;19535;50.672;4.206;2023-12-22T11:02:34;1.02;;;0.77;;
33170;SDS011;19535;50.672;4.206;2023-12-22T11:05:04;0.77;;;0.60;;
33170;SDS011;19535;50.672;4.206;2023-12-22T11:07:33;2.10;;;0.75;;
33170;SDS011;19535;50.672;4.206;2023-12-22T11:10:02;0.75;;;0.75;;
33170;SDS011;19535;50.672;4.206;2023-12-22T11:12:35;0.75;;;0.60;;
33170;SDS011;19535;50.672;4.206;2023-12-22T11:15:04;0.77;;;0.60;;
33170;SDS011;19535;50.672;4.206;2023-12-22T11:17:36;0.98;;;0.60;;
33170;SDS011;19535;50.672;4.206;2023-12-22T11:20:10;0.80;;;0.68;;
33170;SDS011;19535;50.672;4.206;2023-12-22T11:22:39;0.88;;;0.77;;
33170;SDS011;19535;50.672;4.206;2023-12-22T11:25:08;0.90;;;0.70;;
33170;SDS011;19535;50.672;4.206;2023-12-22T11:27:40;0.80;;;0.70;;
33170;SDS011;19535;50.672;4.206;2023-12-22T11:32:37;1.10;;;0.80;;
33170;SDS011;19535;50.672;4.206;2023-12-22T11:35:06;0.60;;;0.60;;
33170;SDS011;19535;50.672;4.206;2023-12-22T11:37:35;0.68;;;0.60;;
33170;SDS011;19535;50.672;4.206;2023-12-22T11:40:03;0.50;;;0.43;;
33170;SDS011;19535;50.672;4.206;2023-12-22T11:42:31;0.50;;;0.47;;
33170;SDS011;19535;50.672;4.206;2023-12-22T11:45:05;0.40;;;0.40;;
33170;SDS011;19535;50.672;4.206;2023-12-22T11:47:32;0.63;;;0.40;;
33170;SDS011;19535;50.672;4.206;2023-12-22T11:50:01;0.60;;;0.57;;
33170;SDS011;19535;50.672;4.206;2023-12-22T11:52:28;1.90;;;0.50;;
33170;SDS011;19535;50.672;4.206;2023-12-22T11:54:55;0.55;;;0.50;;
33170;SDS011;19535;50.672;4.206;2023-12-22T11:57:29;1.48;;;0.50;;
33170;SDS011;19535;50.672;4.206;2023-12-22T12:00:05;0.50;;;0.50;;
33170;SDS011;19535;50.672;4.206;2023-12-22T12:03:03;1.13;;;0.70;;
33170;SDS011;19535;50.672;4.206;2023-12-22T12:05:33;0.43;;;0.40;;
33170;SDS011;19535;50.672;4.206;2023-12-22T12:08:06;0.57;;;0.40;;
33170;SDS011;19535;50.672;4.206;2023-12-22T12:13:07;0.60;;;0.40;;
33170;SDS011;19535;50.672;4.206;2023-12-22T12:15:35;0.32;;;0.28;;
33170;SDS011;19535;50.672;4.206;2023-12-22T12:18:03;0.20;;;0.20;;
33170;SDS011;19535;50.672;4.206;2023-12-22T12:20:31;0.55;;;0.38;;
33170;SDS011;19535;50.672;4.206;2023-12-22T12:22:59;1.40;;;0.70;;
33170;SDS011;19535;50.672;4.206;2023-12-22T12:25:28;1.10;;;0.45;;
33170;SDS011;19535;50.672;4.206;2023-12-22T12:28:05;1.83;;;0.30;;
33170;SDS011;19535;50.672;4.206;2023-12-22T12:30:35;1.70;;;0.60;;
33170;SDS011;19535;50.672;4.206;2023-12-22T12:33:07;0.68;;;0.30;;
33170;SDS011;19535;50.672;4.206;2023-12-22T12:35:35;0.32;;;0.32;;
33170;SDS011;19535;50.672;4.206;2023-12-22T12:38:08;0.75;;;0.30;;
33170;SDS011;19535;50.672;4.206;2023-12-22T12:40:35;0.38;;;0.38;;
33170;SDS011;19535;50.672;4.206;2023-12-22T12:43:06;0.57;;;0.38;;
33170;SDS011;19535;50.672;4.206;2023-12-22T12:45:33;0.80;;;0.35;;
33170;SDS011;19535;50.672;4.206;2023-12-22T12:48:01;0.55;;;0.30;;
33170;SDS011;19535;50.672;4.206;2023-12-22T12:50:33;0.40;;;0.40;;
33170;SDS011;19535;50.672;4.206;2023-12-22T12:53:00;0.55;;;0.50;;
33170;SDS011;19535;50.672;4.206;2023-12-22T12:55:28;0.28;;;0.17;;
33170;SDS011;19535;50.672;4.206;2023-12-22T12:57:55;0.73;;;0.50;;
33170;SDS011;19535;50.672;4.206;2023-12-22T13:00:32;0.73;;;0.30;;
33170;SDS011;19535;50.672;4.206;2023-12-22T13:03:04;0.70;;;0.30;;
33170;SDS011;19535;50.672;4.206;2023-12-22T13:05:33;0.40;;;0.30;;
33170;SDS011;19535;50.672;4.206;2023-12-22T13:08:07;0.40;;;0.40;;
33170;SDS011;19535;50.672;4.206;2023-12-22T13:10:38;1.10;;;0.50;;
33170;SDS011;19535;50.672;4.206;2023-12-22T13:13:06;0.43;;;0.30;;
33170;SDS011;19535;50.672;4.206;2023-12-22T13:15:33;1.27;;;0.50;;
33170;SDS011;19535;50.672;4.206;2023-12-22T13:18:00;0.40;;;0.30;;
33170;SDS011;19535;50.672;4.206;2023-12-22T13:20:28;0.20;;;0.20;;
33170;SDS011;19535;50.672;4.206;2023-12-22T13:22:55;0.17;;;0.17;;
33170;SDS011;19535;50.672;4.206;2023-12-22T13:25:23;0.38;;;0.38;;
33170;SDS011;19535;50.672;4.206;2023-12-22T13:27:51;0.60;;;0.60;;
33170;SDS011;19535;50.672;4.206;2023-12-22T13:30:34;0.50;;;0.50;;
33170;SDS011;19535;50.672;4.206;2023-12-22T13:33:08;0.50;;;0.50;;
33170;SDS011;19535;50.672;4.206;2023-12-22T13:35:35;1.00;;;0.50;;
33170;SDS011;19535;50.672;4.206;2023-12-22T13:38:08;0.50;;;0.50;;
33170;SDS011;19535;50.672;4.206;2023-12-22T13:40:36;0.50;;;0.45;;
33170;SDS011;19535;50.672;4.206;2023-12-22T13:43:05;0.50;;;0.50;;
33170;SDS011;19535;50.672;4.206;2023-12-22T13:45:34;0.65;;;0.50;;
33170;SDS011;19535;50.672;4.206;2023-12-22T13:48:01;0.73;;;0.50;;
33170;SDS011;19535;50.672;4.206;2023-12-22T13:50:29;0.57;;;0.38;;
33170;SDS011;19535;50.672;4.206;2023-12-22T13:52:57;0.47;;;0.40;;
33170;SDS011;19535;50.672;4.206;2023-12-22T13:55:34;0.52;;;0.40;;
33170;SDS011;19535;50.672;4.206;2023-12-22T13:58:04;0.75;;;0.57;;
33170;SDS011;19535;50.672;4.206;2023-12-22T14:00:31;0.40;;;0.40;;
33170;SDS011;19535;50.672;4.206;2023-12-22T14:03:00;0.43;;;0.40;;
33170;SDS011;19535;50.672;4.206;2023-12-22T14:05:28;0.45;;;0.45;;
33170;SDS011;19535;50.672;4.206;2023-12-22T14:07:59;0.40;;;0.40;;
33170;SDS011;19535;50.672;4.206;2023-12-22T14:10:26;1.45;;;0.50;;
33170;SDS011;19535;50.672;4.206;2023-12-22T14:12:53;0.50;;;0.45;;
33170;SDS011;19535;50.672;4.206;2023-12-22T14:15:20;0.40;;;0.40;;
33170;SDS011;19535;50.672;4.206;2023-12-22T14:17:52;0.50;;;0.40;;
33170;SDS011;19535;50.672;4.206;2023-12-22T14:20:19;0.90;;;0.40;;
33170;SDS011;19535;50.672;4.206;2023-12-22T14:22:46;0.40;;;0.40;;
33170;SDS011;19535;50.672;4.206;2023-12-22T14:25:13;2.05;;;0.50;;
33170;SDS011;19535;50.672;4.206;2023-12-22T14:27:40;0.90;;;0.50;;
33170;SDS011;19535;50.672;4.206;2023-12-22T14:30:07;0.45;;;0.40;;
33170;SDS011;19535;50.672;4.206;2023-12-22T14:32:35;1.15;;;0.60;;
33170;SDS011;19535;50.672;4.206;2023-12-22T14:35:02;0.40;;;0.40;;
33170;SDS011;19535;50.672;4.206;2023-12-22T14:37:31;0.90;;;0.50;;
33170;SDS011;19535;50.672;4.206;2023-12-22T14:39:59;0.82;;;0.43;;
33170;SDS011;19535;50.672;4.206;2023-12-22T14:42:26;0.60;;;0.43;;
33170;SDS011;19535;50.672;4.206;2023-12-22T14:44:53;0.75;;;0.50;;
33170;SDS011;19535;50.672;4.206;2023-12-22T14:47:20;0.60;;;0.47;;
33170;SDS011;19535;50.672;4.206;2023-12-22T14:49:47;1.55;;;0.40;;
33170;SDS011;19535;50.672;4.206;2023-12-22T14:52:14;1.10;;;0.50;;
33170;SDS011;19535;50.672;4.206;2023-12-22T14:54:41;0.40;;;0.40;;
33170;SDS011;19535;50.672;4.206;2023-12-22T14:57:08;1.85;;;0.50;;
33170;SDS011;19535;50.672;4.206;2023-12-22T14:59:35;0.80;;;0.50;;
33170;SDS011;19535;50.672;4.206;2023-12-22T15:02:02;1.17;;;0.60;;
33170;SDS011;19535;50.672;4.206;2023-12-22T15:04:31;1.00;;;0.70;;
33170;SDS011;19535;50.672;4.206;2023-12-22T15:07:01;0.80;;;0.50;;
33170;SDS011;19535;50.672;4.206;2023-12-22T15:09:29;0.80;;;0.40;;
33170;SDS011;19535;50.672;4.206;2023-12-22T15:11:56;0.38;;;0.30;;
33170;SDS011;19535;50.672;4.206;2023-12-22T15:14:23;0.90;;;0.40;;